Time;durP1;ratioP1;P1;durP2;ratioP2;P2;SDS_P1;SDS_P2;PMS_P1;PMS_P2;Temp;Humidity;BMP_temperature;BMP_pressure;BME280_temperature;BME280_humidity;BME280_pressure;Samples;Min_cycle;Max_cycle;Signal;HPM_P1;HPM_P2
2023/12/30 00:01:47;;;;;;;32.90;18.15;;;9.80;95.10;;;;;;7377513;19;19918;-70
2023/12/30 00:04:13;;;;;;;31.80;18.08;;;9.80;95.20;;;;;;7397473;19;19927;-71
2023/12/30 00:06:40;;;;;;;28.92;16.95;;;9.80;95.10;;;;;;7401739;19;19941;-71
2023/12/30 00:09:06;;;;;;;28.30;17.17;;;9.90;94.90;;;;;;7394910;19;19929;-71
2023/12/30 00:11:32;;;;;;;29.67;18.20;;;9.90;94.70;;;;;;7401325;19;21150;-72
2023/12/30 00:13:58;;;;;;;28.50;16.73;;;9.90;94.60;;;;;;7400291;19;19937;-73
2023/12/30 00:16:25;;;;;;;29.17;16.45;;;9.90;94.50;;;;;;7399215;19;19938;-71
2023/12/30 00:18:51;;;;;;;29.70;16.30;;;9.80;94.70;;;;;;7398766;19;19926;-72
2023/12/30 00:21:20;;;;;;;29.50;17.35;;;9.80;94.70;;;;;;7399613;19;19979;-71
2023/12/30 00:23:46;;;;;;;27.38;16.17;;;9.90;94.80;;;;;;7402390;19;19918;-72
2023/12/30 00:26:25;;;;;;;28.45;16.75;;;9.80;94.50;;;;;;7398437;19;20350;-71
2023/12/30 00:28:52;;;;;;;32.42;17.23;;;9.80;94.70;;;;;;7399123;19;19952;-71
2023/12/30 00:31:29;;;;;;;29.52;16.45;;;9.80;94.90;;;;;;7394433;19;19946;-72
2023/12/30 00:34:00;;;;;;;31.43;19.20;;;9.70;95.20;;;;;;7248632;19;2933246;-70
2023/12/30 00:36:27;;;;;;;33.40;17.25;;;9.70;95.20;;;;;;7399937;19;19918;-71
2023/12/30 00:38:54;;;;;;;32.78;17.00;;;9.80;95.90;;;;;;7402465;19;19971;-71
2023/12/30 00:41:21;;;;;;;29.25;16.58;;;9.90;95.40;;;;;;7400078;19;19914;-72
2023/12/30 00:43:47;;;;;;;;;;;9.90;95.30;;;;;;7403665;19;19919;-71
2023/12/30 00:46:13;;;;;;;27.77;16.02;;;9.90;94.70;;;;;;7399009;19;19918;-71
2023/12/30 00:48:39;;;;;;;27.83;15.20;;;10.00;94.50;;;;;;7403612;19;19921;-71
2023/12/30 00:51:05;;;;;;;26.50;16.10;;;10.00;94.40;;;;;;7400819;19;19921;-71
2023/12/30 00:53:31;;;;;;;28.27;15.80;;;10.10;93.80;;;;;;7403591;19;19982;-71
2023/12/30 00:55:57;;;;;;;27.15;15.00;;;10.10;93.70;;;;;;7402441;19;20353;-71
2023/12/30 00:58:23;;;;;;;28.38;15.90;;;10.10;93.30;;;;;;7396687;19;19922;-71
2023/12/30 01:00:50;;;;;;;28.13;16.27;;;10.10;92.70;;;;;;7399362;19;20220;-71
2023/12/30 01:03:16;;;;;;;27.58;16.30;;;10.10;92.90;;;;;;7400377;19;19954;-71
2023/12/30 01:05:44;;;;;;;30.27;16.52;;;10.00;92.80;;;;;;7398870;19;19939;-72
2023/12/30 01:08:10;;;;;;;32.88;16.58;;;10.00;93.00;;;;;;7397928;19;20365;-72
2023/12/30 01:10:36;;;;;;;25.02;14.60;;;9.90;93.40;;;;;;7401258;19;20296;-72
2023/12/30 01:13:01;;;;;;;27.52;16.08;;;9.80;93.60;;;;;;7404250;19;19917;-71
2023/12/30 01:15:27;;;;;;;31.67;16.75;;;9.70;94.00;;;;;;7398238;19;20020;-72
2023/12/30 01:17:53;;;;;;;26.33;15.68;;;9.70;94.20;;;;;;7401230;19;19919;-71
2023/12/30 01:20:19;;;;;;;26.52;15.50;;;9.60;94.40;;;;;;7396199;19;19964;-72
2023/12/30 01:22:44;;;;;;;27.75;15.65;;;9.60;94.70;;;;;;7378832;19;19914;-71
2023/12/30 01:25:10;;;;;;;26.63;15.85;;;9.60;95.00;;;;;;7395055;19;19945;-71
2023/12/30 01:27:36;;;;;;;25.42;15.18;;;9.60;95.00;;;;;;7399579;19;19918;-71
2023/12/30 01:30:02;;;;;;;26.20;15.55;;;9.50;94.90;;;;;;7397642;19;19958;-71
2023/12/30 01:32:28;;;;;;;29.95;15.90;;;9.50;95.00;;;;;;7395502;19;19918;-71
2023/12/30 01:34:53;;;;;;;26.52;16.45;;;9.40;95.40;;;;;;7394644;19;20303;-72
2023/12/30 01:37:19;;;;;;;26.02;15.77;;;9.40;95.50;;;;;;7397976;19;20026;-73
2023/12/30 01:39:45;;;;;;;28.67;16.80;;;9.30;95.50;;;;;;7396754;19;19939;-72
2023/12/30 01:42:11;;;;;;;26.58;15.85;;;9.30;95.80;;;;;;7396524;19;19974;-72
2023/12/30 01:44:37;;;;;;;31.60;15.95;;;9.30;96.10;;;;;;7399117;19;19914;-72
2023/12/30 01:47:04;;;;;;;27.90;15.85;;;9.30;96.50;;;;;;7397771;19;20019;-71
2023/12/30 01:49:29;;;;;;;27.48;17.00;;;9.30;96.80;;;;;;7398617;19;20339;-71
2023/12/30 01:51:55;;;;;;;30.42;17.23;;;9.30;96.80;;;;;;7398945;19;19922;-71
2023/12/30 01:54:22;;;;;;;28.90;16.63;;;9.30;96.60;;;;;;7394911;19;20266;-71
2023/12/30 01:56:49;;;;;;;30.73;16.83;;;9.30;96.90;;;;;;7399857;19;20347;-71
2023/12/30 01:59:18;;;;;;;32.63;16.65;;;9.30;97.80;;;;;;7396400;19;20270;-71
2023/12/30 02:01:47;;;;;;;27.90;15.73;;;9.30;97.40;;;;;;7399335;19;19941;-71
2023/12/30 02:04:13;;;;;;;27.60;15.88;;;9.40;96.80;;;;;;7394987;19;19982;-71
2023/12/30 02:06:39;;;;;;;27.05;15.82;;;9.30;96.60;;;;;;7401667;19;19931;-71
2023/12/30 02:09:06;;;;;;;26.05;16.20;;;9.30;96.60;;;;;;7396861;19;19926;-71
2023/12/30 02:11:32;;;;;;;30.42;16.17;;;9.20;96.40;;;;;;7398656;19;19922;-72
2023/12/30 02:13:58;;;;;;;29.85;16.42;;;9.20;96.60;;;;;;7396221;19;19947;-71
2023/12/30 02:16:23;;;;;;;25.90;16.25;;;9.20;96.90;;;;;;7399227;19;19922;-71
2023/12/30 02:18:49;;;;;;;30.38;17.48;;;9.20;97.20;;;;;;7398535;19;19922;-71
2023/12/30 02:21:15;;;;;;;26.88;16.48;;;9.20;97.10;;;;;;7397570;19;19919;-71
2023/12/30 02:23:41;;;;;;;27.58;15.48;;;9.20;96.60;;;;;;7397819;19;19919;-71
2023/12/30 02:26:09;;;;;;;25.60;15.38;;;9.20;96.50;;;;;;7397729;19;19945;-71
2023/12/30 02:28:36;;;;;;;27.52;15.75;;;9.10;96.70;;;;;;7399379;19;19922;-70
2023/12/30 02:31:03;;;;;;;24.95;15.60;;;9.10;97.00;;;;;;7398575;19;19928;-72
2023/12/30 02:33:29;;;;;;;26.67;14.70;;;9.00;96.90;;;;;;7397977;19;19918;-71
2023/12/30 02:35:55;;;;;;;24.30;14.20;;;9.00;97.10;;;;;;7396564;19;19949;-71
2023/12/30 02:38:21;;;;;;;28.35;15.10;;;9.00;97.40;;;;;;7396909;19;19919;-71
2023/12/30 02:40:46;;;;;;;23.70;13.75;;;9.00;97.80;;;;;;7399184;19;19930;-72
2023/12/30 02:43:12;;;;;;;26.55;14.52;;;9.10;98.10;;;;;;7395462;19;19934;-71
2023/12/30 02:45:38;;;;;;;26.88;15.82;;;9.20;97.00;;;;;;7397873;19;20255;-71
2023/12/30 02:48:04;;;;;;;25.27;14.93;;;9.20;96.30;;;;;;7397413;19;19924;-71
2023/12/30 02:50:30;;;;;;;24.20;13.88;;;9.10;96.60;;;;;;7399356;19;19923;-70
2023/12/30 02:52:56;;;;;;;23.13;13.23;;;9.10;96.70;;;;;;7400690;19;19937;-71
2023/12/30 02:55:21;;;;;;;25.50;15.05;;;9.10;96.90;;;;;;7396434;19;20323;-71
2023/12/30 02:57:48;;;;;;;22.63;13.63;;;9.10;96.90;;;;;;7399843;19;20003;-71
2023/12/30 03:00:14;;;;;;;23.15;14.07;;;9.10;97.30;;;;;;7395675;19;19918;-71
2023/12/30 03:02:41;;;;;;;25.40;14.23;;;9.20;97.40;;;;;;7400203;19;19918;-71
2023/12/30 03:05:07;;;;;;;21.95;13.68;;;9.20;96.90;;;;;;7394987;19;19918;-71
2023/12/30 03:07:36;;;;;;;23.58;13.88;;;9.10;96.70;;;;;;7397460;19;19941;-70
2023/12/30 03:10:03;;;;;;;25.05;12.93;;;9.10;96.50;;;;;;7396783;19;19918;-72
2023/12/30 03:12:29;;;;;;;25.42;15.40;;;9.10;97.00;;;;;;7397142;19;20499;-71
2023/12/30 03:14:55;;;;;;;26.33;13.93;;;9.00;96.60;;;;;;7396397;19;19911;-71
2023/12/30 03:17:21;;;;;;;24.83;13.57;;;8.90;96.60;;;;;;7397064;19;19927;-72
2023/12/30 03:19:46;;;;;;;24.38;14.05;;;8.90;96.80;;;;;;7394794;19;19974;-71
2023/12/30 03:22:12;;;;;;;25.08;14.38;;;8.80;96.90;;;;;;7398847;19;20364;-71
2023/12/30 03:24:38;;;;;;;25.48;14.18;;;8.80;97.00;;;;;;7397635;19;19925;-71
2023/12/30 03:27:04;;;;;;;27.55;14.77;;;8.90;96.80;;;;;;7397042;19;19922;-71
2023/12/30 03:29:30;;;;;;;28.30;15.30;;;8.80;96.20;;;;;;7396804;19;20246;-71
2023/12/30 03:31:56;;;;;;;24.40;13.50;;;8.80;96.00;;;;;;7396768;19;19935;-70
2023/12/30 03:34:21;;;;;;;24.08;14.52;;;8.80;95.90;;;;;;7395534;19;20318;-72
2023/12/30 03:36:48;;;;;;;27.67;15.15;;;8.70;95.60;;;;;;7396526;19;19941;-71
2023/12/30 03:39:14;;;;;;;25.40;14.50;;;8.70;95.50;;;;;;7395732;19;19938;-71
2023/12/30 03:41:39;;;;;;;24.95;14.48;;;8.60;95.30;;;;;;7395789;19;20582;-70
2023/12/30 03:44:05;;;;;;;25.55;14.30;;;8.70;95.30;;;;;;7394616;19;19941;-71
2023/12/30 03:46:31;;;;;;;24.65;14.70;;;8.80;94.60;;;;;;7395920;19;19922;-71
2023/12/30 03:48:57;;;;;;;24.80;14.00;;;8.80;94.50;;;;;;7397122;19;19969;-72
2023/12/30 03:51:22;;;;;;;26.38;15.93;;;8.80;94.40;;;;;;7395901;19;20286;-71
2023/12/30 03:53:50;;;;;;;25.08;15.18;;;8.80;93.90;;;;;;7396625;19;19939;-70
2023/12/30 03:56:16;;;;;;;27.40;14.45;;;8.80;94.30;;;;;;7393768;19;20369;-72
2023/12/30 03:58:42;;;;;;;24.73;14.60;;;8.70;94.10;;;;;;7398305;19;19914;-71
2023/12/30 04:01:07;;;;;;;25.70;14.85;;;8.70;94.40;;;;;;7394110;19;19917;-71
2023/12/30 04:03:33;;;;;;;25.27;13.85;;;8.60;94.30;;;;;;7395693;19;19941;-71
2023/12/30 04:05:59;;;;;;;22.65;13.73;;;8.60;94.50;;;;;;7393850;19;19922;-70
2023/12/30 04:08:25;;;;;;;27.10;15.38;;;8.50;94.60;;;;;;7396789;19;19926;-71
2023/12/30 04:10:50;;;;;;;26.30;14.18;;;8.50;94.80;;;;;;7394401;19;19914;-71
2023/12/30 04:13:16;;;;;;;28.30;14.40;;;8.50;95.00;;;;;;7395336;19;19917;-71
2023/12/30 04:15:42;;;;;;;25.60;14.80;;;8.50;95.20;;;;;;7391903;19;19922;-72
2023/12/30 04:18:08;;;;;;;24.25;14.02;;;8.60;95.10;;;;;;7391297;19;20259;-71
2023/12/30 04:20:34;;;;;;;23.17;14.18;;;8.60;94.80;;;;;;7394922;19;19910;-71
2023/12/30 04:22:59;;;;;;;23.10;13.05;;;8.60;94.70;;;;;;7395507;19;19931;-71
2023/12/30 04:25:25;;;;;;;25.85;13.38;;;8.60;94.50;;;;;;7394600;19;19929;-72
2023/12/30 04:27:51;;;;;;;24.20;12.98;;;8.60;94.40;;;;;;7395064;19;19943;-71
2023/12/30 04:30:16;;;;;;;21.67;11.75;;;8.60;94.10;;;;;;7392936;19;19929;-71
2023/12/30 04:32:42;;;;;;;20.05;11.52;;;8.60;93.70;;;;;;7391037;19;19922;-71
2023/12/30 04:35:08;;;;;;;20.50;11.35;;;8.70;93.00;;;;;;7392014;19;19922;-71
2023/12/30 04:37:34;;;;;;;20.17;11.75;;;8.60;92.80;;;;;;7392617;19;19926;-71
2023/12/30 04:39:59;;;;;;;25.17;12.02;;;8.70;92.30;;;;;;7393821;19;19925;-72
2023/12/30 04:42:25;;;;;;;22.52;13.10;;;8.60;92.30;;;;;;7389773;19;19918;-72
2023/12/30 04:44:52;;;;;;;24.20;12.45;;;8.70;92.20;;;;;;7399863;19;19926;-71
2023/12/30 04:47:18;;;;;;;;;;;8.70;91.80;;;;;;7400414;19;20027;-70
2023/12/30 04:49:44;;;;;;;19.92;11.32;;;8.70;91.40;;;;;;7400515;19;19914;-71
2023/12/30 04:52:10;;;;;;;20.60;11.98;;;8.80;90.90;;;;;;7399361;19;19911;-72
2023/12/30 04:54:35;;;;;;;22.75;12.50;;;8.90;90.50;;;;;;7400704;19;19911;-71
2023/12/30 04:57:01;;;;;;;20.92;12.35;;;8.80;90.10;;;;;;7397803;19;19918;-71
2023/12/30 04:59:27;;;;;;;20.10;11.75;;;8.80;89.70;;;;;;7400481;19;19923;-71
2023/12/30 05:01:54;;;;;;;22.10;11.95;;;8.80;90.10;;;;;;7398531;19;19919;-70
2023/12/30 05:04:20;;;;;;;20.15;11.35;;;8.70;90.40;;;;;;7398872;19;19947;-71
2023/12/30 05:06:46;;;;;;;22.55;10.48;;;8.60;90.90;;;;;;7400611;19;20405;-71
2023/12/30 05:09:14;;;;;;;20.65;12.13;;;8.60;91.20;;;;;;7398416;19;19923;-71
2023/12/30 05:11:44;;;;;;;21.52;13.07;;;8.50;91.30;;;;;;7398676;19;19926;-71
2023/12/30 05:14:10;;;;;;;25.15;14.70;;;8.60;91.60;;;;;;7399415;19;19911;-71
2023/12/30 05:16:45;;;;;;;21.17;13.40;;;8.50;91.60;;;;;;7398587;19;20262;-71
2023/12/30 05:19:11;;;;;;;20.65;11.65;;;8.50;92.00;;;;;;7398487;19;19919;-71
2023/12/30 05:21:37;;;;;;;20.95;11.93;;;8.50;92.10;;;;;;7400897;19;19918;-71
2023/12/30 05:24:04;;;;;;;21.48;12.70;;;8.50;92.50;;;;;;7399514;19;20291;-71
2023/12/30 05:26:30;;;;;;;19.60;11.55;;;8.50;92.60;;;;;;7401406;19;19923;-72
2023/12/30 05:28:57;;;;;;;21.05;11.68;;;8.40;92.50;;;;;;7399324;19;20249;-72
2023/12/30 05:31:23;;;;;;;18.95;11.38;;;8.50;92.70;;;;;;7398359;19;19938;-71
2023/12/30 05:33:49;;;;;;;18.85;11.35;;;8.50;93.00;;;;;;7398829;19;19914;-71
2023/12/30 05:36:15;;;;;;;19.05;11.18;;;8.70;92.10;;;;;;7399464;19;20666;-71
2023/12/30 05:38:40;;;;;;;21.63;12.07;;;8.70;90.90;;;;;;7398561;19;19997;-71
2023/12/30 05:41:06;;;;;;;18.92;11.55;;;8.60;91.00;;;;;;7397031;19;20374;-71
2023/12/30 05:43:32;;;;;;;21.88;11.18;;;8.70;90.50;;;;;;7398997;19;19929;-71
2023/12/30 05:45:58;;;;;;;18.90;11.45;;;8.50;90.30;;;;;;7401868;19;19942;-71
2023/12/30 05:48:23;;;;;;;19.85;11.80;;;8.50;90.70;;;;;;7395897;19;19991;-71
2023/12/30 05:50:49;;;;;;;19.70;12.18;;;8.50;91.10;;;;;;7399135;19;19948;-72
2023/12/30 05:53:15;;;;;;;22.85;12.15;;;8.40;90.70;;;;;;7395937;19;19954;-71
2023/12/30 05:55:41;;;;;;;21.77;13.32;;;8.40;91.20;;;;;;7395387;19;20550;-71
2023/12/30 05:58:06;;;;;;;19.73;11.73;;;8.40;91.30;;;;;;7396886;19;20262;-71
2023/12/30 06:00:32;;;;;;;18.35;11.75;;;8.40;91.20;;;;;;7399659;19;19923;-71
2023/12/30 06:02:58;;;;;;;21.70;10.60;;;8.30;91.40;;;;;;7397282;19;19919;-71
2023/12/30 06:05:24;;;;;;;20.00;11.13;;;8.30;91.80;;;;;;7395985;19;19915;-71
2023/12/30 06:07:50;;;;;;;19.35;11.07;;;8.30;91.70;;;;;;7399835;19;19955;-70
2023/12/30 06:10:15;;;;;;;18.00;10.32;;;8.30;91.90;;;;;;7396250;19;19927;-71
2023/12/30 06:12:41;;;;;;;18.23;10.80;;;8.40;91.90;;;;;;7396668;19;19922;-71
2023/12/30 06:15:07;;;;;;;18.33;11.05;;;8.30;91.60;;;;;;7396429;19;20352;-71
2023/12/30 06:17:33;;;;;;;21.83;11.00;;;8.40;91.70;;;;;;7398291;19;20259;-72
2023/12/30 06:19:59;;;;;;;19.20;10.30;;;8.30;91.60;;;;;;7395364;19;19914;-72
2023/12/30 06:22:24;;;;;;;19.20;10.40;;;8.40;91.70;;;;;;7397560;19;19918;-71
2023/12/30 06:24:50;;;;;;;19.15;10.90;;;8.40;92.10;;;;;;7397610;19;19989;-71
2023/12/30 06:27:16;;;;;;;16.73;10.82;;;8.40;92.20;;;;;;7395255;19;19959;-70
2023/12/30 06:29:42;;;;;;;18.15;10.45;;;8.50;92.20;;;;;;7397040;19;19962;-71
2023/12/30 06:32:08;;;;;;;19.77;10.63;;;8.50;92.30;;;;;;7394189;19;20335;-71
2023/12/30 06:34:34;;;;;;;18.38;10.65;;;8.50;92.30;;;;;;7401176;19;19933;-72
2023/12/30 06:37:00;;;;;;;17.90;9.82;;;8.50;92.10;;;;;;7398438;19;19926;-71
2023/12/30 06:39:26;;;;;;;18.73;11.10;;;8.50;91.90;;;;;;7398825;19;19986;-72
2023/12/30 06:41:51;;;;;;;19.33;10.90;;;8.50;91.20;;;;;;7396292;19;19915;-71
2023/12/30 06:44:17;;;;;;;19.30;10.23;;;8.40;91.10;;;;;;7396250;19;19925;-71
2023/12/30 06:46:43;;;;;;;22.85;10.52;;;8.40;91.00;;;;;;7397890;19;19918;-70
2023/12/30 06:49:09;;;;;;;18.58;10.38;;;8.40;90.90;;;;;;7396995;19;19970;-71
2023/12/30 06:51:34;;;;;;;19.05;10.15;;;8.30;91.00;;;;;;7395947;19;19974;-71
2023/12/30 06:54:00;;;;;;;21.33;10.52;;;8.30;90.80;;;;;;7397093;19;19921;-71
2023/12/30 06:56:26;;;;;;;19.50;10.73;;;8.30;90.50;;;;;;7397616;19;20236;-71
2023/12/30 06:58:52;;;;;;;21.17;11.70;;;8.30;90.50;;;;;;7399796;19;19921;-71
2023/12/30 07:01:20;;;;;;;17.90;10.30;;;8.30;90.10;;;;;;7394078;19;19931;-72
2023/12/30 07:03:47;;;;;;;21.98;10.35;;;8.30;90.10;;;;;;7398511;19;19915;-71
2023/12/30 07:06:13;;;;;;;17.27;10.65;;;8.30;90.00;;;;;;7394829;19;20274;-72
2023/12/30 07:08:39;;;;;;;18.77;10.30;;;8.30;89.30;;;;;;7398829;19;19922;-71
2023/12/30 07:11:05;;;;;;;21.98;11.23;;;8.40;89.40;;;;;;7395786;19;20339;-72
2023/12/30 07:13:30;;;;;;;21.15;10.73;;;8.50;88.90;;;;;;7399915;19;20360;-72
2023/12/30 07:15:56;;;;;;;20.45;10.68;;;8.50;87.40;;;;;;7396322;19;19918;-70
2023/12/30 07:18:23;;;;;;;18.23;10.90;;;8.50;86.70;;;;;;7400174;19;19975;-71
2023/12/30 07:20:49;;;;;;;18.25;10.13;;;8.60;86.50;;;;;;7393408;19;19917;-71
2023/12/30 07:23:14;;;;;;;19.27;11.07;;;8.60;85.40;;;;;;7397404;19;19922;-72
2023/12/30 07:25:40;;;;;;;17.60;10.60;;;8.50;85.30;;;;;;7393579;19;19958;-71
2023/12/30 07:28:06;;;;;;;19.38;10.18;;;8.60;85.20;;;;;;7398145;19;19914;-71
2023/12/30 07:30:32;;;;;;;18.67;10.88;;;8.70;84.90;;;;;;7397309;19;19918;-71
2023/12/30 07:32:58;;;;;;;18.40;9.73;;;8.80;84.10;;;;;;7396364;19;20341;-72
2023/12/30 07:35:24;;;;;;;18.83;9.82;;;8.90;83.70;;;;;;7394276;19;19914;-72
2023/12/30 07:37:50;;;;;;;17.13;9.45;;;9.00;82.30;;;;;;7397549;19;19982;-72
2023/12/30 07:40:16;;;;;;;18.63;10.10;;;9.10;80.70;;;;;;7393672;19;19918;-72
2023/12/30 07:42:42;;;;;;;18.40;9.88;;;9.20;81.10;;;;;;7395301;19;19922;-71
2023/12/30 07:45:08;;;;;;;19.17;10.13;;;9.10;81.20;;;;;;7393201;19;19923;-71
2023/12/30 07:47:34;;;;;;;17.27;9.85;;;9.10;81.50;;;;;;7395046;19;19914;-72
2023/12/30 07:50:00;;;;;;;19.25;10.43;;;9.10;82.10;;;;;;7394143;19;19913;-72
2023/12/30 07:52:26;;;;;;;16.33;9.43;;;9.10;82.10;;;;;;7395568;19;19949;-72
2023/12/30 07:54:52;;;;;;;17.05;10.68;;;9.20;81.30;;;;;;7394727;19;19914;-72
2023/12/30 07:57:18;;;;;;;18.83;9.95;;;9.30;81.40;;;;;;7394844;19;19914;-71
2023/12/30 07:59:44;;;;;;;16.88;9.15;;;9.30;81.20;;;;;;7397845;19;19919;-71
2023/12/30 08:02:10;;;;;;;18.45;9.77;;;9.40;82.40;;;;;;7393782;19;19918;-71
2023/12/30 08:04:36;;;;;;;19.48;10.07;;;9.30;81.30;;;;;;7397277;19;19926;-71
2023/12/30 08:07:02;;;;;;;18.73;10.15;;;9.30;80.40;;;;;;7398863;19;19922;-71
2023/12/30 08:09:27;;;;;;;17.52;8.90;;;9.30;80.00;;;;;;7395365;19;19954;-71
2023/12/30 08:11:53;;;;;;;21.55;10.10;;;9.30;80.40;;;;;;7397220;19;19941;-71
2023/12/30 08:14:20;;;;;;;17.15;10.05;;;9.40;80.70;;;;;;7393711;19;19922;-71
2023/12/30 08:16:46;;;;;;;17.45;9.88;;;9.40;81.00;;;;;;7395869;19;19921;-72
2023/12/30 08:19:11;;;;;;;16.42;9.75;;;9.40;81.50;;;;;;7400161;19;20462;-72
2023/12/30 08:21:37;;;;;;;18.83;10.32;;;9.60;82.00;;;;;;7402770;19;20334;-72
2023/12/30 08:24:06;;;;;;;17.20;9.75;;;10.10;82.80;;;;;;7402668;19;19982;-71
2023/12/30 08:26:32;;;;;;;17.77;9.98;;;10.70;81.10;;;;;;7402079;19;19914;-71
2023/12/30 08:28:58;;;;;;;18.73;10.48;;;11.60;77.10;;;;;;7401696;19;20413;-71
2023/12/30 08:31:24;;;;;;;17.52;10.07;;;11.50;71.10;;;;;;7399418;19;19964;-71
2023/12/30 08:33:51;;;;;;;17.48;9.18;;;11.40;71.40;;;;;;7404967;19;19919;-72
2023/12/30 08:36:17;;;;;;;17.05;9.93;;;12.50;71.10;;;;;;7399465;19;19914;-72
2023/12/30 08:38:43;;;;;;;17.52;10.60;;;13.50;61.50;;;;;;7403715;19;19915;-72
2023/12/30 08:41:14;;;;;;;16.10;9.93;;;14.30;57.30;;;;;;7399571;19;19939;-71
2023/12/30 08:43:41;;;;;;;22.45;11.18;;;15.30;53.40;;;;;;7404375;19;19914;-72
2023/12/30 08:46:10;;;;;;;16.13;10.30;;;15.90;43.80;;;;;;7399759;19;19922;-72
2023/12/30 08:48:36;;;;;;;17.98;11.48;;;16.80;40.40;;;;;;7403119;19;20549;-71
2023/12/30 08:51:03;;;;;;;16.65;10.80;;;16.90;39.20;;;;;;7399498;19;20643;-72
2023/12/30 08:53:29;;;;;;;17.38;10.98;;;16.60;38.10;;;;;;7401916;19;20323;-72
2023/12/30 08:55:55;;;;;;;19.40;10.90;;;16.20;38.20;;;;;;7399186;19;19915;-71
2023/12/30 08:58:21;;;;;;;21.40;11.90;;;15.70;39.50;;;;;;7400077;19;19982;-71
2023/12/30 09:00:50;;;;;;;27.08;12.05;;;15.00;43.50;;;;;;7403568;19;19918;-72
2023/12/30 09:03:16;;;;;;;22.83;11.73;;;14.50;47.60;;;;;;7398270;19;19914;-72
2023/12/30 09:05:44;;;;;;;17.25;11.35;;;14.20;50.90;;;;;;7401519;19;20285;-71
2023/12/30 09:08:10;;;;;;;19.00;11.75;;;13.90;54.50;;;;;;7400328;19;20284;-72
2023/12/30 09:10:36;;;;;;;20.13;11.63;;;13.70;56.80;;;;;;7396183;19;19930;-72
2023/12/30 09:13:02;;;;;;;19.45;11.48;;;13.70;58.70;;;;;;7399697;19;19918;-73
2023/12/30 09:15:28;;;;;;;20.02;11.75;;;13.60;61.80;;;;;;7397468;19;19968;-72
2023/12/30 09:17:57;;;;;;;18.30;11.57;;;13.70;62.50;;;;;;7399821;19;20338;-72
2023/12/30 09:20:22;;;;;;;18.48;11.93;;;13.90;65.80;;;;;;7375556;19;20483;-72
2023/12/30 09:22:48;;;;;;;19.50;12.70;;;13.90;64.70;;;;;;7399725;19;19918;-71
2023/12/30 09:25:14;;;;;;;20.73;11.57;;;14.00;64.80;;;;;;7395335;19;19928;-71
2023/12/30 09:27:40;;;;;;;20.70;12.48;;;14.10;63.50;;;;;;7399763;19;19935;-72
2023/12/30 09:30:06;;;;;;;19.77;11.70;;;14.50;62.20;;;;;;7397533;19;20246;-71
2023/12/30 09:32:32;;;;;;;18.20;12.27;;;14.90;60.70;;;;;;7400495;19;19943;-72
2023/12/30 09:34:58;;;;;;;18.80;12.00;;;15.40;59.30;;;;;;7397775;19;19907;-72
2023/12/30 09:37:24;;;;;;;18.13;11.80;;;15.70;55.10;;;;;;7399312;19;19917;-72
2023/12/30 09:39:51;;;;;;;18.83;12.02;;;15.90;53.70;;;;;;7396602;19;19910;-72
2023/12/30 09:42:17;;;;;;;20.05;12.73;;;16.10;51.50;;;;;;7397736;19;19914;-73
2023/12/30 09:44:43;;;;;;;20.45;13.45;;;16.10;51.40;;;;;;7401292;19;19911;-72
2023/12/30 09:47:11;;;;;;;;;;;16.30;52.60;;;;;;7402766;19;19930;-72
2023/12/30 09:49:37;;;;;;;16.45;11.90;;;16.40;50.90;;;;;;7397989;19;20456;-72
2023/12/30 09:52:05;;;;;;;18.55;13.15;;;16.70;50.10;;;;;;7399838;19;19918;-72
2023/12/30 09:54:30;;;;;;;17.70;12.77;;;16.90;48.20;;;;;;7396796;19;20632;-71
2023/12/30 09:56:59;;;;;;;18.77;13.38;;;17.00;48.00;;;;;;7401031;19;19945;-73
2023/12/30 09:59:30;;;;;;;19.02;13.18;;;17.10;46.40;;;;;;7399032;19;19914;-72
2023/12/30 10:01:56;;;;;;;17.85;13.23;;;17.00;44.10;;;;;;7400573;19;19978;-72
2023/12/30 10:04:22;;;;;;;20.42;13.85;;;17.00;45.90;;;;;;7395784;19;19949;-72
2023/12/30 10:06:51;;;;;;;17.30;13.77;;;16.80;45.50;;;;;;7398570;19;19922;-71
2023/12/30 10:09:22;;;;;;;16.00;12.68;;;17.10;46.60;;;;;;7397775;19;19933;-73
2023/12/30 10:11:48;;;;;;;19.33;13.80;;;17.30;45.90;;;;;;7397289;19;20623;-72
2023/12/30 10:14:14;;;;;;;14.60;12.00;;;17.50;44.00;;;;;;7394896;19;19923;-72
2023/12/30 10:16:40;;;;;;;16.65;11.82;;;17.60;43.20;;;;;;7400362;19;19986;-72
2023/12/30 10:19:09;;;;;;;17.10;13.05;;;17.80;43.80;;;;;;7395270;19;19945;-72
2023/12/30 10:21:39;;;;;;;17.70;13.43;;;17.70;44.00;;;;;;7400841;19;19922;-72
2023/12/30 10:24:06;;;;;;;21.13;13.35;;;17.20;45.00;;;;;;7393730;19;19926;-72
2023/12/30 10:26:37;;;;;;;16.42;12.88;;;17.20;46.60;;;;;;7400189;19;20024;-72
2023/12/30 10:29:05;;;;;;;13.82;11.93;;;17.50;45.40;;;;;;7397778;19;19922;-71
2023/12/30 10:31:31;;;;;;;16.00;11.18;;;17.70;43.50;;;;;;7398960;19;19941;-72
2023/12/30 10:33:57;;;;;;;16.83;11.23;;;17.60;43.30;;;;;;7396571;19;19918;-73
2023/12/30 10:36:23;;;;;;;15.35;11.55;;;18.20;40.90;;;;;;7396241;19;20256;-72
2023/12/30 10:38:52;;;;;;;15.63;12.73;;;18.60;39.20;;;;;;7397713;19;19925;-72
2023/12/30 10:41:18;;;;;;;17.20;12.13;;;18.90;36.70;;;;;;7396096;19;19923;-72
2023/12/30 10:43:44;;;;;;;16.45;12.32;;;18.90;35.90;;;;;;7399016;19;19926;-71
2023/12/30 10:46:11;;;;;;;16.02;12.68;;;19.30;34.00;;;;;;7398224;19;19922;-72
2023/12/30 10:49:03;;;;;;;16.08;12.57;;;19.30;34.00;;;;;;7398593;19;19915;-72
2023/12/30 10:51:33;;;;;;;16.38;12.30;;;19.30;33.50;;;;;;7396025;19;20393;-72
2023/12/30 10:54:06;;;;;;;15.65;12.52;;;19.40;32.10;;;;;;7400205;19;19927;-73
2023/12/30 10:56:39;;;;;;;17.88;12.45;;;19.70;31.10;;;;;;7394043;19;19934;-72
2023/12/30 10:59:07;;;;;;;16.80;12.98;;;19.90;29.90;;;;;;7393932;19;19915;-71
2023/12/30 11:01:34;;;;;;;16.15;12.40;;;20.40;29.00;;;;;;7398144;19;20319;-72
2023/12/30 11:04:11;;;;;;;14.77;11.93;;;20.60;28.10;;;;;;7397818;19;19942;-72
2023/12/30 11:06:49;;;;;;;15.43;13.30;;;21.20;26.10;;;;;;7394212;19;20399;-72
2023/12/30 11:09:15;;;;;;;16.92;13.75;;;21.10;25.40;;;;;;7397198;19;19914;-72
2023/12/30 11:11:52;;;;;;;16.10;12.65;;;21.40;24.50;;;;;;7397896;19;19938;-72
2023/12/30 11:14:21;;;;;;;14.57;12.98;;;21.60;22.90;;;;;;7396543;19;19926;-72
2023/12/30 11:16:50;;;;;;;15.95;13.63;;;21.90;21.60;;;;;;7397754;19;19932;-72
2023/12/30 11:19:27;;;;;;;18.05;13.18;;;21.70;22.00;;;;;;7396490;19;19941;-71
2023/12/30 11:21:54;;;;;;;17.10;13.93;;;22.00;21.50;;;;;;7397129;19;19927;-72
2023/12/30 11:24:21;;;;;;;20.52;12.98;;;22.30;20.80;;;;;;7396511;19;19910;-72
2023/12/30 11:26:47;;;;;;;18.02;14.75;;;22.30;20.20;;;;;;7394388;19;19914;-72
2023/12/30 11:29:17;;;;;;;;;;;21.10;20.20;;;;;;7379147;19;19923;-72
2023/12/30 11:31:44;;;;;;;16.48;12.93;;;21.80;20.70;;;;;;7395193;19;19922;-72
2023/12/30 11:34:11;;;;;;;19.08;13.90;;;22.30;19.60;;;;;;7374447;19;20524;-73
2023/12/30 11:36:37;;;;;;;17.50;14.18;;;22.20;18.40;;;;;;7395466;19;19915;-73
2023/12/30 11:39:03;;;;;;;17.95;16.02;;;21.80;18.80;;;;;;7396694;19;19919;-72
2023/12/30 11:41:30;;;;;;;;;;;20.40;21.00;;;;;;7396609;19;19917;-73
2023/12/30 11:43:58;;;;;;;18.15;14.68;;;21.40;20.80;;;;;;7397099;19;19933;-72
2023/12/30 11:46:28;;;;;;;20.50;16.05;;;21.80;20.00;;;;;;7394567;19;19917;-73
2023/12/30 11:48:54;;;;;;;20.40;16.55;;;20.80;20.30;;;;;;7396456;19;20353;-71
2023/12/30 11:51:20;;;;;;;;;;;20.40;22.10;;;;;;7394171;19;19919;-71
2023/12/30 11:53:46;;;;;;;21.10;15.27;;;20.60;21.40;;;;;;7400203;19;20359;-72
2023/12/30 11:56:11;;;;;;;21.25;17.13;;;21.30;20.80;;;;;;7398278;19;20349;-72
2023/12/30 11:58:37;;;;;;;21.17;18.90;;;20.20;21.70;;;;;;7402408;19;20279;-73
2023/12/30 12:01:03;;;;;;;20.58;16.92;;;20.60;22.10;;;;;;7396027;19;19914;-72
2023/12/30 12:03:29;;;;;;;22.25;17.73;;;20.80;22.60;;;;;;7401219;19;19921;-72
2023/12/30 12:05:54;;;;;;;21.20;17.10;;;21.20;20.30;;;;;;7400678;19;19925;-71
2023/12/30 12:08:20;;;;;;;18.38;16.15;;;21.60;19.80;;;;;;7400885;19;19926;-72
2023/12/30 12:10:47;;;;;;;20.73;15.90;;;22.80;17.20;;;;;;7400867;19;19926;-72
2023/12/30 12:13:23;;;;;;;20.88;16.48;;;23.70;14.90;;;;;;7401785;19;19918;-72
2023/12/30 12:15:49;;;;;;;24.73;18.98;;;23.70;14.00;;;;;;7402672;19;19942;-73
2023/12/30 12:18:15;;;;;;;20.63;16.77;;;22.50;14.50;;;;;;7402694;19;20486;-73
2023/12/30 12:20:43;;;;;;;19.92;17.70;;;23.10;14.40;;;;;;7402194;19;19918;-73
2023/12/30 12:23:09;;;;;;;20.92;16.67;;;23.50;13.70;;;;;;7403419;19;19942;-73
2023/12/30 12:25:37;;;;;;;19.23;16.25;;;24.00;12.20;;;;;;7400886;19;19923;-73
2023/12/30 12:28:09;;;;;;;21.77;17.67;;;24.40;11.00;;;;;;7402939;19;19918;-72
2023/12/30 12:30:34;;;;;;;22.25;17.33;;;24.40;10.60;;;;;;7399381;19;19937;-72
2023/12/30 12:33:00;;;;;;;20.15;16.98;;;24.10;11.10;;;;;;7400295;19;19985;-72